createdAt,value
2018-09-22T00:00:07.482Z,10.34
2018-09-22T00:01:07.474Z,10.22
2018-09-22T00:02:07.455Z,10.26
2018-09-22T00:03:07.488Z,10.29
2018-09-22T00:04:07.451Z,10.22
2018-09-22T00:05:07.428Z,10.24
2018-09-22T00:06:07.418Z,10.26
2018-09-22T00:07:07.402Z,10.25
2018-09-22T00:08:07.419Z,10.20
2018-09-22T00:09:07.430Z,10.28
2018-09-22T00:10:07.372Z,10.17
2018-09-22T00:11:07.364Z,10.29
2018-09-22T00:12:07.352Z,10.31
2018-09-22T00:13:07.375Z,10.28
2018-09-22T00:14:07.327Z,10.24
2018-09-22T00:15:07.359Z,10.16
2018-09-22T00:16:07.315Z,10.31
2018-09-22T00:17:07.295Z,10.26
2018-09-22T00:18:07.331Z,10.18
2018-09-22T00:19:07.312Z,10.09
2018-09-22T00:20:07.264Z,10.14
2018-09-22T00:21:07.253Z,10.17
2018-09-22T00:22:07.281Z,10.16
2018-09-22T00:23:07.264Z,9.99
2018-09-22T00:24:07.229Z,10.06
2018-09-22T00:25:07.216Z,9.99
2018-09-22T00:26:07.199Z,10.04
2018-09-22T00:27:07.200Z,9.92
2018-09-22T00:28:07.180Z,9.98
2018-09-22T00:29:07.228Z,9.93
2018-09-22T00:30:07.173Z,9.89
2018-09-22T00:31:07.148Z,9.89
2018-09-22T00:32:07.173Z,9.83
2018-09-22T00:33:07.121Z,9.77
2018-09-22T00:34:07.133Z,9.74
2018-09-22T00:35:07.103Z,9.75
2018-09-22T00:36:07.108Z,9.83
2018-09-22T00:37:07.095Z,9.74
2018-09-22T00:38:07.093Z,9.75
2018-09-22T00:39:07.096Z,9.62
2018-09-22T00:40:07.059Z,9.68
2018-09-22T00:41:07.035Z,9.65
2018-09-22T00:42:07.037Z,9.65
2018-09-22T00:43:07.017Z,9.63
2018-09-22T00:44:07.025Z,9.65
2018-09-22T00:45:06.993Z,9.59
2018-09-22T00:46:06.985Z,9.53
2018-09-22T00:47:06.971Z,9.58
2018-09-22T00:48:07.013Z,9.42
2018-09-22T00:49:06.997Z,9.45
2018-09-22T00:50:06.937Z,9.48
2018-09-22T00:51:06.933Z,9.49
2018-09-22T00:52:06.921Z,9.52
2018-09-22T00:53:06.905Z,9.44
2018-09-22T00:54:06.924Z,9.44
2018-09-22T00:55:06.922Z,9.40
2018-09-22T00:56:06.877Z,9.35
2018-09-22T00:57:06.878Z,9.42
2018-09-22T00:58:06.884Z,9.50
2018-09-22T00:59:06.906Z,9.48
2018-09-22T01:00:06.840Z,9.44
2018-09-22T01:01:06.851Z,9.45
2018-09-22T01:02:06.828Z,9.50
2018-09-22T01:03:06.795Z,9.41
2018-09-22T01:04:06.824Z,9.37
2018-09-22T01:05:06.778Z,9.34
2018-09-22T01:06:06.770Z,9.30
2018-09-22T01:07:06.757Z,9.35
2018-09-22T01:08:06.765Z,9.26
2018-09-22T01:09:06.762Z,9.24
2018-09-22T01:10:06.772Z,9.24
2018-09-22T01:11:06.712Z,9.31
2018-09-22T01:12:06.698Z,9.26
2018-09-22T01:13:06.689Z,9.30
2018-09-22T01:14:06.715Z,9.35
2018-09-22T01:15:06.672Z,9.30
2018-09-22T01:16:06.667Z,9.31
2018-09-22T01:17:06.656Z,9.26
2018-09-22T01:18:06.651Z,9.34
2018-09-22T01:19:06.680Z,9.24
2018-09-22T01:20:06.613Z,9.23
2018-09-22T01:21:06.600Z,9.27
2018-09-22T01:22:06.594Z,9.23
2018-09-22T01:23:06.586Z,9.23
2018-09-22T01:24:06.601Z,9.26
2018-09-22T01:25:06.566Z,9.20
2018-09-22T01:26:06.559Z,9.15
2018-09-22T01:27:06.540Z,9.13
2018-09-22T01:28:06.530Z,9.23
2018-09-22T01:29:06.543Z,9.24
2018-09-22T01:30:06.518Z,9.13
2018-09-22T01:31:06.505Z,9.16
2018-09-22T01:32:06.485Z,9.20
2018-09-22T01:33:06.473Z,9.22
2018-09-22T01:34:06.488Z,9.10
2018-09-22T01:35:06.448Z,9.10
2018-09-22T01:36:06.465Z,9.08
2018-09-22T01:37:06.427Z,9.10
2018-09-22T01:38:06.426Z,9.04
2018-09-22T01:39:06.430Z,9.06
2018-09-22T01:40:06.396Z,9.06
2018-09-22T01:41:06.385Z,9.12
2018-09-22T01:42:06.377Z,9.13
2018-09-22T01:43:06.365Z,9.15
2018-09-22T01:44:06.377Z,9.08
2018-09-22T01:45:06.341Z,9.08
2018-09-22T01:46:06.330Z,9.10
2018-09-22T01:47:06.332Z,9.01
2018-09-22T01:48:06.337Z,9.04
2018-09-22T01:49:06.327Z,9.01
2018-09-22T01:50:06.289Z,9.03
2018-09-22T01:51:06.285Z,8.96
2018-09-22T01:52:06.266Z,8.96
2018-09-22T01:53:06.263Z,8.89
2018-09-22T01:54:06.296Z,8.96
2018-09-22T01:55:06.235Z,8.94
2018-09-22T01:56:06.222Z,8.91
2018-09-22T01:57:06.232Z,8.93
2018-09-22T01:58:06.197Z,8.83
2018-09-22T01:59:06.237Z,8.93
2018-09-22T02:00:06.204Z,8.93
2018-09-22T02:01:06.172Z,8.88
2018-09-22T02:02:06.210Z,8.80
2018-09-22T02:03:06.164Z,8.93
2018-09-22T02:04:06.174Z,8.89
2018-09-22T02:05:06.121Z,8.89
2018-09-22T02:06:06.118Z,8.96
2018-09-22T02:07:06.104Z,9.00
2018-09-22T02:08:06.089Z,9.04
2018-09-22T02:09:06.107Z,9.22
2018-09-22T02:10:06.092Z,9.27
2018-09-22T02:11:06.053Z,9.24
2018-09-22T02:12:06.044Z,9.24
2018-09-22T02:13:06.033Z,9.35
2018-09-22T02:14:06.053Z,9.35
2018-09-22T02:15:06.025Z,9.44
2018-09-22T02:16:06.016Z,9.40
2018-09-22T02:17:05.998Z,9.40
2018-09-22T02:18:05.973Z,9.41
2018-09-22T02:19:05.962Z,9.55
2018-09-22T02:20:06.005Z,9.49
2018-09-22T02:21:05.941Z,9.42
2018-09-22T02:22:05.934Z,9.45
2018-09-22T02:23:05.943Z,9.56
2018-09-22T02:24:05.910Z,9.59
2018-09-22T02:25:05.930Z,9.59
2018-09-22T02:26:05.890Z,9.67
2018-09-22T02:27:05.877Z,9.70
2018-09-22T02:28:05.872Z,9.74
2018-09-22T02:29:05.862Z,9.78
2018-09-22T02:30:05.878Z,9.77
2018-09-22T02:31:05.832Z,9.86
2018-09-22T02:32:05.826Z,9.86
2018-09-22T02:33:05.830Z,9.80
2018-09-22T02:34:05.802Z,9.83
2018-09-22T02:35:05.790Z,9.91
2018-09-22T02:36:05.802Z,9.98
2018-09-22T02:37:05.764Z,10.16
2018-09-22T02:38:05.762Z,10.14
2018-09-22T02:39:05.743Z,10.20
2018-09-22T02:40:05.732Z,10.18
2018-09-22T02:41:05.783Z,10.28
2018-09-22T02:42:05.721Z,10.22
2018-09-22T02:43:05.702Z,10.35
2018-09-22T02:44:05.688Z,10.24
2018-09-22T02:45:05.679Z,10.38
2018-09-22T02:46:05.667Z,10.42
2018-09-22T02:47:05.733Z,10.43
2018-09-22T02:48:05.647Z,10.44
2018-09-22T02:49:05.634Z,10.60
2018-09-22T02:50:05.626Z,10.55
2018-09-22T02:51:05.609Z,10.63
2018-09-22T02:52:05.625Z,10.75
2018-09-22T02:53:05.597Z,10.68
2018-09-22T02:54:05.582Z,10.75
2018-09-22T02:55:05.575Z,10.78
2018-09-22T02:56:05.578Z,10.81
2018-09-22T02:57:05.584Z,10.93
2018-09-22T02:58:05.533Z,10.91
2018-09-22T02:59:05.524Z,11.11
2018-09-22T03:00:05.513Z,11.03
2018-09-22T03:01:05.508Z,11.21
2018-09-22T03:02:05.495Z,11.21
2018-09-22T03:03:05.502Z,11.19
2018-09-22T03:04:05.477Z,11.17
2018-09-22T03:05:05.461Z,11.31
2018-09-22T03:06:05.447Z,11.27
2018-09-22T03:07:05.437Z,11.36
2018-09-22T03:08:05.461Z,11.30
2018-09-22T03:09:05.424Z,11.23
2018-09-22T03:10:05.417Z,11.26
2018-09-22T03:11:05.396Z,11.20
2018-09-22T03:12:05.380Z,11.20
2018-09-22T03:13:05.369Z,11.13
2018-09-22T03:14:05.396Z,11.01
2018-09-22T03:15:05.358Z,11.05
2018-09-22T03:16:05.351Z,10.94
2018-09-22T03:17:05.337Z,10.93
2018-09-22T03:18:05.332Z,10.91
2018-09-22T03:19:05.338Z,10.84
2018-09-22T03:20:05.316Z,10.78
2018-09-22T03:21:05.283Z,10.73
2018-09-22T03:22:05.278Z,10.75
2018-09-22T03:23:05.273Z,10.60
2018-09-22T03:24:05.294Z,10.63
2018-09-22T03:25:05.294Z,10.60
2018-09-22T03:26:05.233Z,10.60
2018-09-22T03:27:05.219Z,10.54
2018-09-22T03:28:05.208Z,10.52
2018-09-22T03:29:05.243Z,10.65
2018-09-22T03:30:05.209Z,10.62
2018-09-22T03:31:05.177Z,10.68
2018-09-22T03:32:05.171Z,10.73
2018-09-22T03:33:05.151Z,10.78
2018-09-22T03:34:05.146Z,10.73
2018-09-22T03:35:05.201Z,10.69
2018-09-22T03:36:05.124Z,10.75
2018-09-22T03:37:05.111Z,10.76
2018-09-22T03:38:05.114Z,10.81
2018-09-22T03:39:05.099Z,10.78
2018-09-22T03:40:05.089Z,10.69
2018-09-22T03:41:05.107Z,10.76
2018-09-22T03:42:05.077Z,10.80
2018-09-22T03:43:05.043Z,10.86
2018-09-22T03:44:05.039Z,10.84
2018-09-22T03:45:05.024Z,10.90
2018-09-22T03:46:05.020Z,10.86
2018-09-22T03:47:05.026Z,10.73
2018-09-22T03:48:04.992Z,10.84
2018-09-22T03:49:04.978Z,10.78
2018-09-22T03:50:04.972Z,10.81
2018-09-22T03:51:04.958Z,10.76
2018-09-22T03:52:04.993Z,10.80
2018-09-22T03:53:04.940Z,10.81
2018-09-22T03:54:04.927Z,10.83
2018-09-22T03:55:04.913Z,10.91
2018-09-22T03:56:04.901Z,10.83
2018-09-22T03:57:04.923Z,10.81
2018-09-22T03:58:04.880Z,10.86
2018-09-22T03:59:04.884Z,10.84
2018-09-22T04:00:04.859Z,10.84
2018-09-22T04:01:04.846Z,10.73
2018-09-22T04:02:04.843Z,10.75
2018-09-22T04:03:04.852Z,10.75
2018-09-22T04:04:04.838Z,10.75
2018-09-22T04:05:04.819Z,10.76
2018-09-22T04:06:04.791Z,10.62
2018-09-22T04:07:04.782Z,10.57
2018-09-22T04:08:04.775Z,10.66
2018-09-22T04:09:04.787Z,10.66
2018-09-22T04:10:04.760Z,10.58
2018-09-22T04:11:04.737Z,10.49
2018-09-22T04:12:04.734Z,10.46
2018-09-22T04:13:04.716Z,10.47
2018-09-22T04:14:04.736Z,10.47
2018-09-22T04:15:04.695Z,10.49
2018-09-22T04:16:04.694Z,10.52
2018-09-22T04:17:04.674Z,10.43
2018-09-22T04:18:04.669Z,10.43
2018-09-22T04:19:04.675Z,10.42
2018-09-22T04:20:04.645Z,10.28
2018-09-22T04:21:04.633Z,10.32
2018-09-22T04:22:04.633Z,10.26
2018-09-22T04:23:04.608Z,10.31
2018-09-22T04:24:04.607Z,10.31
2018-09-22T04:25:04.609Z,10.22
2018-09-22T04:26:04.574Z,10.31
2018-09-22T04:27:04.566Z,10.28
2018-09-22T04:28:04.593Z,10.31
2018-09-22T04:29:04.542Z,10.36
2018-09-22T04:30:04.570Z,10.46
2018-09-22T04:31:04.524Z,10.42
2018-09-22T04:32:04.515Z,10.51
2018-09-22T04:33:04.507Z,10.47
2018-09-22T04:34:04.508Z,10.47
2018-09-22T04:35:04.477Z,10.49
2018-09-22T04:36:04.489Z,10.47
2018-09-22T04:37:04.463Z,10.39
2018-09-22T04:38:04.444Z,10.44
2018-09-22T04:39:04.435Z,10.43
2018-09-22T04:40:04.430Z,10.44
2018-09-22T04:41:04.446Z,10.51
2018-09-22T04:42:04.408Z,10.51
2018-09-22T04:43:04.389Z,10.58
2018-09-22T04:44:04.382Z,10.51
2018-09-22T04:45:04.367Z,10.63
2018-09-22T04:46:04.392Z,10.65
2018-09-22T04:47:04.348Z,10.62
2018-09-22T04:48:04.346Z,10.72
2018-09-22T04:49:04.330Z,10.78
2018-09-22T04:50:04.316Z,10.84
2018-09-22T04:51:04.323Z,10.86
2018-09-22T04:52:04.387Z,10.93
2018-09-22T04:53:04.299Z,10.83
2018-09-22T04:54:04.273Z,10.83
2018-09-22T04:55:04.264Z,10.83
2018-09-22T04:56:04.249Z,10.86
2018-09-22T04:57:04.274Z,10.88
2018-09-22T04:58:04.246Z,10.88
2018-09-22T04:59:04.218Z,10.93
2018-09-22T05:00:04.206Z,10.95
2018-09-22T05:01:04.195Z,10.90
2018-09-22T05:02:04.185Z,10.99
2018-09-22T05:03:04.202Z,11.02
2018-09-22T05:04:04.184Z,11.08
2018-09-22T05:05:04.156Z,11.05
2018-09-22T05:06:04.142Z,11.09
2018-09-22T05:07:04.130Z,11.16
2018-09-22T05:08:04.149Z,11.16
2018-09-22T05:09:04.133Z,11.09
2018-09-22T05:10:04.100Z,11.12
2018-09-22T05:11:04.117Z,11.11
2018-09-22T05:12:04.077Z,11.11
2018-09-22T05:13:04.094Z,11.12
2018-09-22T05:14:04.067Z,11.16
2018-09-22T05:15:04.050Z,11.23
2018-09-22T05:16:04.055Z,11.17
2018-09-22T05:17:04.043Z,11.20
2018-09-22T05:18:04.015Z,11.33
2018-09-22T05:19:04.029Z,11.38
2018-09-22T05:20:04.015Z,11.35
2018-09-22T05:21:03.982Z,11.33
2018-09-22T05:22:03.972Z,11.31
2018-09-22T05:23:03.964Z,11.36
2018-09-22T05:24:04.005Z,11.41
2018-09-22T05:25:03.959Z,11.36
2018-09-22T05:26:03.933Z,11.45
2018-09-22T05:27:03.937Z,11.35
2018-09-22T05:28:03.906Z,11.30
2018-09-22T05:29:03.893Z,11.36
2018-09-22T05:30:03.908Z,11.35
2018-09-22T05:31:03.873Z,11.31
2018-09-22T05:32:03.871Z,11.24
2018-09-22T05:33:03.851Z,11.31
2018-09-22T05:34:03.838Z,11.33
2018-09-22T05:35:03.853Z,11.27
2018-09-22T05:36:03.827Z,11.26
2018-09-22T05:37:03.824Z,11.33
2018-09-22T05:38:03.822Z,11.30
2018-09-22T05:39:03.787Z,11.33
2018-09-22T05:40:03.810Z,11.30
2018-09-22T05:41:03.766Z,11.36
2018-09-22T05:42:03.753Z,11.41
2018-09-22T05:43:03.744Z,11.45
2018-09-22T05:44:03.737Z,11.39
2018-09-22T05:45:03.722Z,11.41
2018-09-22T05:46:03.731Z,11.42
2018-09-22T05:47:03.729Z,11.42
2018-09-22T05:48:03.687Z,11.46
2018-09-22T05:49:03.676Z,11.46
2018-09-22T05:50:03.679Z,11.45
2018-09-22T05:51:03.705Z,11.45
2018-09-22T05:52:03.646Z,11.46
2018-09-22T05:53:03.640Z,11.46
2018-09-22T05:54:03.625Z,11.53
2018-09-22T05:55:03.613Z,11.49
2018-09-22T05:56:03.618Z,11.51
2018-09-22T05:57:03.619Z,11.54
2018-09-22T05:58:03.596Z,11.51
2018-09-22T05:59:03.577Z,11.56
2018-09-22T06:00:03.571Z,11.59
2018-09-22T06:01:03.552Z,11.66
2018-09-22T06:02:03.605Z,11.53
2018-09-22T06:03:03.524Z,11.62
2018-09-22T06:04:03.552Z,11.60
2018-09-22T06:05:03.502Z,11.60
2018-09-22T06:06:03.494Z,11.62
2018-09-22T06:07:03.480Z,11.60
2018-09-22T06:08:03.498Z,11.59
2018-09-22T06:09:03.459Z,11.66
2018-09-22T06:10:03.448Z,11.64
2018-09-22T06:11:03.439Z,11.66
2018-09-22T06:12:03.426Z,11.75
2018-09-22T06:13:03.470Z,11.69
2018-09-22T06:14:03.403Z,11.81
2018-09-22T06:15:03.393Z,11.72
2018-09-22T06:16:03.399Z,11.78
2018-09-22T06:17:03.371Z,11.74
2018-09-22T06:18:03.389Z,11.79
2018-09-22T06:19:03.354Z,11.79
2018-09-22T06:20:03.342Z,11.90
2018-09-22T06:21:03.329Z,11.84
2018-09-22T06:22:03.323Z,11.88
2018-09-22T06:23:03.374Z,11.93
2018-09-22T06:24:03.323Z,12.04
2018-09-22T06:25:03.283Z,11.90
2018-09-22T06:26:03.273Z,11.97
2018-09-22T06:27:03.260Z,11.96
2018-09-22T06:28:03.278Z,12.05
2018-09-22T06:29:03.251Z,12.03
2018-09-22T06:30:03.263Z,12.07
2018-09-22T06:31:03.217Z,12.12
2018-09-22T06:32:03.206Z,12.19
2018-09-22T06:33:03.197Z,12.15
2018-09-22T06:34:03.184Z,12.29
2018-09-22T06:35:03.211Z,12.22
2018-09-22T06:36:03.184Z,12.37
2018-09-22T06:37:03.151Z,12.43
2018-09-22T06:38:03.139Z,12.40
2018-09-22T06:39:03.129Z,12.38
2018-09-22T06:40:03.148Z,12.41
2018-09-22T06:41:03.109Z,12.41
2018-09-22T06:42:03.108Z,12.51
2018-09-22T06:43:03.091Z,12.49
2018-09-22T06:44:03.076Z,12.48
2018-09-22T06:45:03.099Z,12.66
2018-09-22T06:46:03.073Z,12.58
2018-09-22T06:47:03.042Z,12.58
2018-09-22T06:48:03.032Z,12.63
2018-09-22T06:49:03.065Z,12.66
2018-09-22T06:50:03.018Z,12.71
2018-09-22T06:51:03.032Z,12.74
2018-09-22T06:52:02.988Z,12.77
2018-09-22T06:53:02.978Z,12.70
2018-09-22T06:54:02.973Z,12.73
2018-09-22T06:55:02.957Z,12.77
2018-09-22T06:56:02.990Z,12.81
2018-09-22T06:57:02.962Z,12.91
2018-09-22T06:58:02.929Z,12.89
2018-09-22T06:59:02.927Z,12.95
2018-09-22T07:00:02.912Z,12.84
2018-09-22T07:01:02.900Z,12.88
2018-09-22T07:02:02.906Z,12.96
2018-09-22T07:03:02.872Z,12.95
2018-09-22T07:04:02.882Z,12.91
2018-09-22T07:05:02.848Z,12.89
2018-09-22T07:06:02.836Z,12.92
2018-09-22T07:07:02.859Z,13.07
2018-09-22T07:08:02.820Z,13.03
2018-09-22T07:09:02.821Z,13.14
2018-09-22T07:10:02.801Z,13.10
2018-09-22T07:11:02.785Z,13.21
2018-09-22T07:12:02.778Z,13.17
2018-09-22T07:13:02.794Z,13.21
2018-09-22T07:14:02.751Z,13.28
2018-09-22T07:15:02.748Z,13.28
2018-09-22T07:16:02.737Z,13.29
2018-09-22T07:17:02.741Z,13.36
2018-09-22T07:18:02.707Z,13.35
2018-09-22T07:19:02.751Z,13.36
2018-09-22T07:20:02.685Z,13.38
2018-09-22T07:21:02.677Z,13.50
2018-09-22T07:22:02.666Z,13.46
2018-09-22T07:23:02.658Z,13.44
2018-09-22T07:24:02.673Z,13.43
2018-09-22T07:25:02.631Z,13.53
2018-09-22T07:26:02.636Z,13.55
2018-09-22T07:27:02.607Z,13.65
2018-09-22T07:28:02.601Z,13.66
2018-09-22T07:29:02.586Z,13.72
2018-09-22T07:30:02.616Z,13.72
2018-09-22T07:31:02.570Z,13.76
2018-09-22T07:32:02.558Z,13.81
2018-09-22T07:33:02.543Z,13.83
2018-09-22T07:34:02.533Z,13.83
2018-09-22T07:35:02.563Z,13.91
2018-09-22T07:36:02.510Z,13.88
2018-09-22T07:37:02.498Z,14.01
2018-09-22T07:38:02.500Z,13.98
2018-09-22T07:39:02.482Z,13.91
2018-09-22T07:40:02.475Z,14.08
2018-09-22T07:41:02.484Z,13.99
2018-09-22T07:42:02.450Z,14.12
2018-09-22T07:43:02.431Z,13.98
2018-09-22T07:44:02.427Z,14.08
2018-09-22T07:45:02.415Z,13.98
2018-09-22T07:46:02.433Z,14.05
2018-09-22T07:47:02.389Z,14.09
2018-09-22T07:48:02.408Z,14.08
2018-09-22T07:49:02.365Z,14.12
2018-09-22T07:50:02.360Z,14.16
2018-09-22T07:51:02.369Z,14.21
2018-09-22T07:52:02.333Z,14.21
2018-09-22T07:53:02.348Z,14.30
2018-09-22T07:54:02.315Z,14.23
2018-09-22T07:55:02.302Z,14.30
2018-09-22T07:56:02.327Z,14.35
2018-09-22T07:57:02.304Z,14.45
2018-09-22T07:58:02.269Z,14.38
2018-09-22T07:59:02.281Z,14.34
2018-09-22T08:00:02.249Z,14.48
2018-09-22T08:01:02.273Z,14.49
2018-09-22T08:02:02.225Z,14.52
2018-09-22T08:03:02.212Z,14.61
2018-09-22T08:04:02.218Z,14.57
2018-09-22T08:05:02.211Z,14.60
2018-09-22T08:06:02.218Z,14.66
2018-09-22T08:07:02.169Z,14.69
2018-09-22T08:08:02.225Z,14.75
2018-09-22T08:09:02.146Z,14.80
2018-09-22T08:10:02.136Z,14.82
2018-09-22T08:12:02.136Z,14.90
2018-09-22T08:13:02.111Z,14.95
2018-09-22T08:14:02.093Z,14.95
2018-09-22T08:15:02.090Z,14.95
2018-09-22T08:16:02.104Z,15.03
2018-09-22T08:17:02.123Z,15.03
2018-09-22T08:18:02.054Z,15.00
2018-09-22T08:19:02.040Z,15.19
2018-09-22T08:20:02.033Z,15.23
2018-09-22T08:21:02.089Z,15.31
2018-09-22T08:22:02.033Z,15.37
2018-09-22T08:23:02.002Z,15.44
2018-09-22T08:24:01.995Z,15.53
2018-09-22T08:25:02.019Z,15.55
2018-09-22T08:26:01.964Z,15.66
2018-09-22T08:27:02.031Z,15.60
2018-09-22T08:28:01.985Z,15.68
2018-09-22T08:29:01.948Z,15.66
2018-09-22T08:30:01.942Z,15.77
2018-09-22T08:31:01.905Z,15.78
2018-09-22T08:32:01.910Z,15.80
2018-09-22T08:33:01.922Z,15.92
2018-09-22T08:34:01.905Z,15.92
2018-09-22T08:35:01.916Z,15.99
2018-09-22T08:36:01.938Z,16.03
2018-09-22T08:37:02.037Z,16.13
2018-09-22T08:38:01.829Z,16.10
2018-09-22T08:39:02.471Z,16.16
2018-09-22T08:40:01.811Z,16.27
2018-09-22T08:41:01.802Z,16.33
2018-09-22T08:42:01.819Z,16.40
2018-09-22T08:43:01.788Z,16.40
2018-09-22T08:44:01.870Z,16.42
2018-09-22T08:45:01.795Z,16.52
2018-09-22T08:46:01.743Z,16.55
2018-09-22T08:47:01.738Z,16.59
2018-09-22T08:48:01.720Z,16.69
2018-09-22T08:49:01.736Z,16.65
2018-09-22T08:50:01.739Z,16.85
2018-09-22T08:51:01.753Z,16.73
2018-09-22T08:52:01.676Z,16.78
2018-09-22T08:53:01.698Z,16.91
2018-09-22T08:54:01.701Z,16.95
2018-09-22T08:55:01.643Z,17.02
2018-09-22T08:56:01.645Z,17.06
2018-09-22T08:57:01.628Z,17.05
2018-09-22T08:58:01.738Z,17.05
2018-09-22T08:59:01.641Z,17.10
2018-09-22T09:00:01.599Z,17.15
2018-09-22T09:01:01.637Z,17.28
2018-09-22T09:02:01.587Z,17.38
2018-09-22T09:03:01.617Z,17.40
2018-09-22T09:04:01.640Z,17.45
2018-09-22T09:05:01.615Z,17.54
2018-09-22T09:06:01.560Z,17.66
2018-09-22T09:07:01.518Z,17.66
2018-09-22T09:08:01.528Z,17.55
2018-09-22T09:09:01.526Z,17.62
2018-09-22T09:10:01.531Z,17.73
2018-09-22T09:11:01.500Z,17.70
2018-09-22T09:12:01.466Z,17.70
2018-09-22T09:13:01.504Z,17.68
2018-09-22T09:14:01.505Z,17.63
2018-09-22T09:15:01.441Z,17.66
2018-09-22T09:16:01.446Z,17.73
2018-09-22T09:17:01.459Z,17.76
2018-09-22T09:18:01.405Z,17.70
2018-09-22T09:19:01.390Z,17.81
2018-09-22T09:20:01.374Z,17.92
2018-09-22T09:21:01.401Z,17.91
2018-09-22T09:22:01.351Z,18.02
2018-09-22T09:23:01.349Z,18.05
2018-09-22T09:24:01.330Z,18.09
2018-09-22T09:25:01.326Z,18.23
2018-09-22T09:26:01.338Z,18.28
2018-09-22T09:27:01.315Z,18.36
2018-09-22T09:28:01.301Z,18.46
2018-09-22T09:29:01.283Z,18.34
2018-09-22T09:30:01.264Z,18.56
2018-09-22T09:31:01.252Z,18.57
2018-09-22T09:32:01.281Z,18.53
2018-09-22T09:33:01.230Z,18.49
2018-09-22T09:34:01.218Z,18.62
2018-09-22T09:35:01.227Z,18.47
2018-09-22T09:36:01.201Z,18.41
2018-09-22T09:37:01.208Z,18.32
2018-09-22T09:38:01.202Z,18.31
2018-09-22T09:39:01.164Z,18.13
2018-09-22T09:40:01.161Z,18.02
2018-09-22T09:41:01.142Z,17.96
2018-09-22T09:42:01.139Z,18.02
2018-09-22T09:43:01.142Z,18.05
2018-09-22T09:44:01.109Z,18.14
2018-09-22T09:45:01.096Z,18.09
2018-09-22T09:46:01.085Z,18.13
2018-09-22T09:47:01.086Z,18.20
2018-09-22T09:48:01.104Z,18.19
2018-09-22T09:49:01.053Z,18.19
2018-09-22T09:50:01.058Z,18.32
2018-09-22T09:51:01.065Z,18.20
2018-09-22T09:52:01.021Z,18.04
2018-09-22T09:53:01.060Z,18.02
2018-09-22T09:54:01.003Z,18.13
2018-09-22T09:55:01.071Z,18.02
2018-09-22T09:56:00.978Z,17.99
2018-09-22T09:57:00.971Z,17.89
2018-09-22T09:58:00.956Z,17.86
2018-09-22T09:59:00.999Z,18.11
2018-09-22T10:00:00.953Z,18.13
2018-09-22T10:01:00.922Z,18.23
2018-09-22T10:02:00.918Z,18.07
2018-09-22T10:03:00.923Z,17.98
2018-09-22T10:04:00.917Z,17.94
2018-09-22T10:05:00.882Z,17.84
2018-09-22T10:06:00.880Z,17.70
2018-09-22T10:07:00.880Z,17.63
2018-09-22T10:08:00.869Z,17.68
2018-09-22T10:09:00.881Z,17.84
2018-09-22T10:10:00.829Z,17.92
2018-09-22T10:11:00.818Z,18.05
2018-09-22T10:12:00.808Z,18.04
2018-09-22T10:13:00.812Z,18.02
2018-09-22T10:14:00.795Z,18.10
2018-09-22T10:15:00.803Z,18.10
2018-09-22T10:16:00.786Z,18.10
2018-09-22T10:17:00.749Z,18.11
2018-09-22T10:18:00.738Z,18.19
2018-09-22T10:19:00.795Z,18.20
2018-09-22T10:20:00.842Z,18.17
2018-09-22T10:21:00.792Z,18.26
2018-09-22T10:22:00.697Z,18.32
2018-09-22T10:23:00.709Z,18.38
2018-09-22T10:24:00.676Z,18.38
2018-09-22T10:25:00.708Z,18.53
2018-09-22T10:26:00.663Z,18.49
2018-09-22T10:27:00.646Z,18.62
2018-09-22T10:28:00.676Z,18.64
2018-09-22T10:29:00.628Z,18.68
2018-09-22T10:30:00.609Z,18.87
2018-09-22T10:31:00.641Z,18.86
2018-09-22T10:32:00.583Z,18.91
2018-09-22T10:33:00.572Z,18.90
2018-09-22T10:34:00.574Z,19.05
2018-09-22T10:35:00.584Z,19.09
2018-09-22T10:36:00.557Z,19.02
2018-09-22T10:37:00.528Z,18.86
2018-09-22T10:38:00.533Z,18.83
2018-09-22T10:39:00.510Z,18.66
2018-09-22T10:40:00.495Z,18.84
2018-09-22T10:41:00.508Z,18.76
2018-09-22T10:42:00.508Z,18.78
2018-09-22T10:43:00.481Z,18.86
2018-09-22T10:44:00.450Z,18.82
2018-09-22T10:45:00.444Z,18.87
2018-09-22T10:46:00.482Z,18.72
2018-09-22T10:47:00.418Z,18.59
2018-09-22T10:48:00.529Z,18.56
2018-09-22T10:49:00.469Z,18.72
2018-09-22T10:50:00.423Z,18.69
2018-09-22T10:51:00.450Z,18.72
2018-09-22T10:52:00.389Z,18.93
2018-09-22T10:53:00.389Z,19.09
2018-09-22T10:54:00.344Z,18.90
2018-09-22T10:55:00.331Z,18.65
2018-09-22T10:56:00.323Z,18.62
2018-09-22T10:57:00.346Z,18.60
2018-09-22T10:58:00.318Z,18.69
2018-09-22T10:59:00.398Z,18.71
2018-09-22T11:00:00.294Z,18.93
2018-09-22T11:01:00.328Z,19.05
2018-09-22T11:02:00.281Z,19.16
2018-09-22T11:03:00.334Z,19.16
2018-09-22T11:04:00.264Z,19.09
2018-09-22T11:05:00.276Z,19.10
2018-09-22T11:06:00.214Z,19.16
2018-09-22T11:07:00.232Z,19.15
2018-09-22T11:08:00.192Z,19.06
2018-09-22T11:09:00.236Z,19.02
2018-09-22T11:10:00.228Z,18.94
2018-09-22T11:11:00.159Z,18.96
2018-09-22T11:12:00.258Z,18.86
2018-09-22T11:13:00.139Z,18.82
2018-09-22T11:14:00.132Z,18.75
2018-09-22T11:15:00.120Z,18.59
2018-09-22T11:16:00.139Z,18.53
2018-09-22T11:17:00.105Z,18.49
2018-09-22T11:18:00.186Z,18.62
2018-09-22T11:19:00.108Z,18.71
2018-09-22T11:20:00.064Z,18.71
2018-09-22T11:21:00.062Z,18.93
2018-09-22T11:22:00.089Z,19.06
2018-09-22T11:23:00.237Z,19.01
2018-09-22T11:24:00.052Z,18.99
2018-09-22T11:25:00.027Z,19.24
2018-09-22T11:26:00.011Z,19.32
2018-09-22T11:27:00.059Z,19.38
2018-09-22T11:28:00.000Z,19.25
2018-09-22T11:28:59.962Z,19.34
2018-09-22T11:29:59.950Z,19.43
2018-09-22T11:31:00.076Z,19.55
2018-09-22T11:31:59.947Z,19.58
2018-09-22T11:33:00.006Z,19.62
2018-09-22T11:33:59.946Z,19.53
2018-09-22T11:34:59.899Z,19.49
2018-09-22T11:35:59.892Z,19.61
2018-09-22T11:36:59.876Z,19.75
2018-09-22T11:37:59.911Z,19.65
2018-09-22T11:38:59.854Z,19.79
2018-09-22T11:39:59.841Z,19.83
2018-09-22T11:40:59.887Z,19.76
2018-09-22T11:41:59.819Z,19.82
2018-09-22T11:42:59.850Z,19.82
2018-09-22T11:43:59.820Z,19.98
2018-09-22T11:44:59.809Z,20.02
2018-09-22T11:45:59.774Z,20.25
2018-09-22T11:46:59.779Z,20.22
2018-09-22T11:47:59.780Z,20.27
2018-09-22T11:48:59.762Z,20.19
2018-09-22T11:49:59.732Z,20.08
2018-09-22T11:50:59.721Z,20.08
2018-09-22T11:51:59.712Z,20.27
2018-09-22T11:52:59.700Z,20.34
2018-09-22T11:53:59.715Z,20.42
2018-09-22T11:54:59.693Z,20.48
2018-09-22T11:55:59.751Z,20.46
2018-09-22T11:56:59.722Z,20.53
2018-09-22T11:57:59.659Z,20.51
2018-09-22T11:58:59.708Z,20.64
2018-09-22T11:59:59.638Z,20.53
2018-09-22T12:00:59.625Z,20.53
2018-09-22T12:01:59.621Z,20.56
2018-09-22T12:02:59.594Z,20.46
2018-09-22T12:03:59.590Z,20.37
2018-09-22T12:04:59.611Z,20.38
2018-09-22T12:05:59.613Z,20.25
2018-09-22T12:06:59.612Z,20.20
2018-09-22T12:07:59.567Z,20.15
2018-09-22T12:08:59.528Z,20.07
2018-09-22T12:09:59.561Z,20.02
2018-09-22T12:10:59.509Z,20.00
2018-09-22T12:11:59.495Z,20.00
2018-09-22T12:12:59.496Z,20.04
2018-09-22T12:13:59.538Z,20.05
2018-09-22T12:14:59.494Z,20.00
2018-09-22T12:15:59.462Z,19.85
2018-09-22T12:16:59.441Z,19.90
2018-09-22T12:17:59.448Z,19.83
2018-09-22T12:18:59.417Z,19.79
2018-09-22T12:19:59.408Z,19.67
2018-09-22T12:20:59.420Z,19.62
2018-09-22T12:21:59.393Z,19.60
2018-09-22T12:22:59.372Z,19.52
2018-09-22T12:23:59.364Z,19.52
2018-09-22T12:24:59.354Z,19.42
2018-09-22T12:25:59.367Z,19.39
2018-09-22T12:26:59.328Z,19.25
2018-09-22T12:27:59.318Z,19.25
2018-09-22T12:28:59.320Z,19.28
2018-09-22T12:29:59.310Z,19.31
2018-09-22T12:30:59.340Z,19.28
2018-09-22T12:31:59.332Z,19.27
2018-09-22T12:32:59.266Z,19.28
2018-09-22T12:33:59.262Z,19.17
2018-09-22T12:34:59.256Z,19.12
2018-09-22T12:35:59.235Z,19.12
2018-09-22T12:36:59.255Z,19.01
2018-09-22T12:37:59.225Z,19.05
2018-09-22T12:38:59.196Z,19.10
2018-09-22T12:39:59.195Z,18.96
2018-09-22T12:40:59.190Z,18.89
2018-09-22T12:41:59.191Z,18.94
2018-09-22T12:42:59.202Z,18.90
2018-09-22T12:43:59.158Z,18.86
2018-09-22T12:44:59.144Z,18.87
2018-09-22T12:45:59.173Z,18.87
2018-09-22T12:46:59.155Z,18.90
2018-09-22T12:47:59.108Z,18.99
2018-09-22T12:48:59.085Z,19.10
2018-09-22T12:49:59.073Z,19.13
2018-09-22T12:50:59.074Z,19.21
2018-09-22T12:51:59.053Z,19.28
2018-09-22T12:52:59.073Z,19.25
2018-09-22T12:53:59.047Z,19.25
2018-09-22T12:54:59.019Z,19.38
2018-09-22T12:55:59.020Z,19.27
2018-09-22T12:56:58.996Z,19.30